sensor_id;sensor_type;location;lat;lon;timestamp;P1;durP1;ratioP1;P2;durP2;ratioP2
11767;SDS011;5941;57.652;12.514;2023-01-31T00:00:23;5.27;;;0.90;;
11767;SDS011;5941;57.652;12.514;2023-01-31T00:02:49;4.93;;;1.20;;
11767;SDS011;5941;57.652;12.514;2023-01-31T00:05:15;4.73;;;0.80;;
11767;SDS011;5941;57.652;12.514;2023-01-31T00:07:43;2.27;;;0.90;;
11767;SDS011;5941;57.652;12.514;2023-01-31T00:10:10;4.87;;;1.00;;
11767;SDS011;5941;57.652;12.514;2023-01-31T00:12:36;2.80;;;0.90;;
11767;SDS011;5941;57.652;12.514;2023-01-31T00:15:02;7.07;;;0.90;;
11767;SDS011;5941;57.652;12.514;2023-01-31T00:17:28;2.17;;;0.77;;
11767;SDS011;5941;57.652;12.514;2023-01-31T00:19:54;1.80;;;0.80;;
11767;SDS011;5941;57.652;12.514;2023-01-31T00:22:20;3.73;;;0.90;;
11767;SDS011;5941;57.652;12.514;2023-01-31T00:24:47;1.90;;;0.83;;
11767;SDS011;5941;57.652;12.514;2023-01-31T00:27:13;3.07;;;0.67;;
11767;SDS011;5941;57.652;12.514;2023-01-31T00:29:38;2.20;;;0.67;;
11767;SDS011;5941;57.652;12.514;2023-01-31T00:32:04;3.33;;;0.60;;
11767;SDS011;5941;57.652;12.514;2023-01-31T00:34:30;2.10;;;0.73;;
11767;SDS011;5941;57.652;12.514;2023-01-31T00:36:56;4.57;;;1.00;;
11767;SDS011;5941;57.652;12.514;2023-01-31T00:39:22;1.53;;;0.77;;
11767;SDS011;5941;57.652;12.514;2023-01-31T00:41:48;2.43;;;0.77;;
11767;SDS011;5941;57.652;12.514;2023-01-31T00:44:14;2.63;;;0.70;;
11767;SDS011;5941;57.652;12.514;2023-01-31T00:46:40;5.00;;;0.90;;
11767;SDS011;5941;57.652;12.514;2023-01-31T00:49:06;4.30;;;1.27;;
11767;SDS011;5941;57.652;12.514;2023-01-31T00:51:32;3.33;;;0.90;;
11767;SDS011;5941;57.652;12.514;2023-01-31T00:53:58;3.73;;;0.90;;
11767;SDS011;5941;57.652;12.514;2023-01-31T00:56:24;5.03;;;1.00;;
11767;SDS011;5941;57.652;12.514;2023-01-31T00:58:50;5.40;;;0.80;;
11767;SDS011;5941;57.652;12.514;2023-01-31T01:01:23;2.53;;;0.70;;
11767;SDS011;5941;57.652;12.514;2023-01-31T01:03:53;2.80;;;0.67;;
11767;SDS011;5941;57.652;12.514;2023-01-31T01:06:20;4.67;;;0.97;;
11767;SDS011;5941;57.652;12.514;2023-01-31T01:08:46;3.37;;;0.93;;
11767;SDS011;5941;57.652;12.514;2023-01-31T01:11:13;3.00;;;0.80;;
11767;SDS011;5941;57.652;12.514;2023-01-31T01:13:40;3.70;;;0.80;;
11767;SDS011;5941;57.652;12.514;2023-01-31T01:16:07;2.57;;;0.90;;
11767;SDS011;5941;57.652;12.514;2023-01-31T01:18:33;2.23;;;0.70;;
11767;SDS011;5941;57.652;12.514;2023-01-31T01:21:06;2.10;;;0.60;;
11767;SDS011;5941;57.652;12.514;2023-01-31T01:23:32;3.53;;;0.60;;
11767;SDS011;5941;57.652;12.514;2023-01-31T01:25:58;2.60;;;0.73;;
11767;SDS011;5941;57.652;12.514;2023-01-31T01:28:24;2.57;;;0.80;;
11767;SDS011;5941;57.652;12.514;2023-01-31T01:30:50;2.77;;;1.00;;
11767;SDS011;5941;57.652;12.514;2023-01-31T01:33:16;2.07;;;0.90;;
11767;SDS011;5941;57.652;12.514;2023-01-31T01:35:42;1.37;;;0.50;;
11767;SDS011;5941;57.652;12.514;2023-01-31T01:38:08;3.70;;;0.87;;
11767;SDS011;5941;57.652;12.514;2023-01-31T01:40:35;4.03;;;1.00;;
11767;SDS011;5941;57.652;12.514;2023-01-31T01:43:01;4.23;;;1.00;;
11767;SDS011;5941;57.652;12.514;2023-01-31T01:45:27;2.43;;;0.67;;
11767;SDS011;5941;57.652;12.514;2023-01-31T01:47:55;6.20;;;1.00;;
11767;SDS011;5941;57.652;12.514;2023-01-31T01:50:27;5.63;;;1.20;;
11767;SDS011;5941;57.652;12.514;2023-01-31T01:52:55;3.13;;;0.90;;
11767;SDS011;5941;57.652;12.514;2023-01-31T01:57:56;4.20;;;0.80;;
11767;SDS011;5941;57.652;12.514;2023-01-31T02:00:24;3.67;;;0.70;;
11767;SDS011;5941;57.652;12.514;2023-01-31T02:02:55;3.23;;;0.60;;
11767;SDS011;5941;57.652;12.514;2023-01-31T02:05:23;5.03;;;1.00;;
11767;SDS011;5941;57.652;12.514;2023-01-31T02:07:50;2.83;;;0.80;;
11767;SDS011;5941;57.652;12.514;2023-01-31T02:10:23;4.93;;;0.80;;
11767;SDS011;5941;57.652;12.514;2023-01-31T02:12:51;2.77;;;1.00;;
11767;SDS011;5941;57.652;12.514;2023-01-31T02:15:17;2.30;;;0.80;;
11767;SDS011;5941;57.652;12.514;2023-01-31T02:17:44;3.90;;;1.20;;
11767;SDS011;5941;57.652;12.514;2023-01-31T02:20:14;4.70;;;0.90;;
11767;SDS011;5941;57.652;12.514;2023-01-31T02:22:52;1.83;;;1.10;;
11767;SDS011;5941;57.652;12.514;2023-01-31T02:28:23;2.77;;;0.80;;
11767;SDS011;5941;57.652;12.514;2023-01-31T02:36:05;4.97;;;0.70;;
11767;SDS011;5941;57.652;12.514;2023-01-31T02:43:53;4.30;;;0.97;;
11767;SDS011;5941;57.652;12.514;2023-01-31T02:46:53;3.90;;;1.40;;
11767;SDS011;5941;57.652;12.514;2023-01-31T02:49:26;2.13;;;0.70;;
11767;SDS011;5941;57.652;12.514;2023-01-31T02:52:12;2.97;;;0.80;;
11767;SDS011;5941;57.652;12.514;2023-01-31T02:54:42;5.93;;;1.23;;
11767;SDS011;5941;57.652;12.514;2023-01-31T02:57:29;3.37;;;1.20;;
11767;SDS011;5941;57.652;12.514;2023-01-31T02:59:55;3.37;;;0.73;;
11767;SDS011;5941;57.652;12.514;2023-01-31T03:02:21;2.33;;;0.73;;
11767;SDS011;5941;57.652;12.514;2023-01-31T03:04:48;5.53;;;1.20;;
11767;SDS011;5941;57.652;12.514;2023-01-31T03:07:19;2.60;;;0.93;;
11767;SDS011;5941;57.652;12.514;2023-01-31T03:10:12;2.87;;;0.77;;
11767;SDS011;5941;57.652;12.514;2023-01-31T03:18:05;1.47;;;0.63;;
11767;SDS011;5941;57.652;12.514;2023-01-31T03:20:34;2.77;;;0.77;;
11767;SDS011;5941;57.652;12.514;2023-01-31T03:23:09;3.60;;;0.93;;
11767;SDS011;5941;57.652;12.514;2023-01-31T03:25:36;3.27;;;0.60;;
11767;SDS011;5941;57.652;12.514;2023-01-31T03:28:07;4.33;;;1.00;;
11767;SDS011;5941;57.652;12.514;2023-01-31T03:30:47;2.70;;;0.80;;
11767;SDS011;5941;57.652;12.514;2023-01-31T03:33:58;3.50;;;1.07;;
11767;SDS011;5941;57.652;12.514;2023-01-31T03:38:31;2.47;;;0.90;;
11767;SDS011;5941;57.652;12.514;2023-01-31T03:41:05;0.97;;;0.70;;
11767;SDS011;5941;57.652;12.514;2023-01-31T03:46:21;3.17;;;1.13;;
11767;SDS011;5941;57.652;12.514;2023-01-31T03:48:50;3.23;;;0.80;;
11767;SDS011;5941;57.652;12.514;2023-01-31T03:51:18;3.67;;;0.90;;
11767;SDS011;5941;57.652;12.514;2023-01-31T03:53:46;3.13;;;0.73;;
11767;SDS011;5941;57.652;12.514;2023-01-31T03:56:49;3.67;;;0.80;;
11767;SDS011;5941;57.652;12.514;2023-01-31T03:59:16;5.90;;;1.23;;
11767;SDS011;5941;57.652;12.514;2023-01-31T04:01:46;4.07;;;1.30;;
11767;SDS011;5941;57.652;12.514;2023-01-31T04:04:14;4.57;;;1.00;;
11767;SDS011;5941;57.652;12.514;2023-01-31T04:06:42;4.90;;;0.67;;
11767;SDS011;5941;57.652;12.514;2023-01-31T04:09:08;3.90;;;1.07;;
11767;SDS011;5941;57.652;12.514;2023-01-31T04:11:38;3.20;;;0.60;;
11767;SDS011;5941;57.652;12.514;2023-01-31T04:14:04;5.00;;;0.90;;
11767;SDS011;5941;57.652;12.514;2023-01-31T04:16:30;2.43;;;0.90;;
11767;SDS011;5941;57.652;12.514;2023-01-31T04:18:56;3.27;;;0.70;;
11767;SDS011;5941;57.652;12.514;2023-01-31T04:21:22;4.90;;;1.40;;
11767;SDS011;5941;57.652;12.514;2023-01-31T04:23:48;3.47;;;0.60;;
11767;SDS011;5941;57.652;12.514;2023-01-31T04:26:14;3.73;;;0.97;;
11767;SDS011;5941;57.652;12.514;2023-01-31T04:28:40;4.53;;;0.93;;
11767;SDS011;5941;57.652;12.514;2023-01-31T04:31:06;4.37;;;1.10;;
11767;SDS011;5941;57.652;12.514;2023-01-31T04:33:32;1.57;;;0.97;;
11767;SDS011;5941;57.652;12.514;2023-01-31T04:35:58;2.57;;;0.70;;
11767;SDS011;5941;57.652;12.514;2023-01-31T04:38:25;1.77;;;0.60;;
11767;SDS011;5941;57.652;12.514;2023-01-31T04:40:51;3.10;;;0.90;;
11767;SDS011;5941;57.652;12.514;2023-01-31T04:43:16;2.73;;;0.60;;
11767;SDS011;5941;57.652;12.514;2023-01-31T04:45:42;4.00;;;0.90;;
11767;SDS011;5941;57.652;12.514;2023-01-31T04:48:08;1.93;;;0.70;;
11767;SDS011;5941;57.652;12.514;2023-01-31T04:50:34;4.40;;;0.90;;
11767;SDS011;5941;57.652;12.514;2023-01-31T04:53:00;2.73;;;0.97;;
11767;SDS011;5941;57.652;12.514;2023-01-31T04:55:27;2.23;;;0.73;;
11767;SDS011;5941;57.652;12.514;2023-01-31T04:57:53;5.93;;;1.37;;
11767;SDS011;5941;57.652;12.514;2023-01-31T05:00:19;3.10;;;1.00;;
11767;SDS011;5941;57.652;12.514;2023-01-31T05:02:45;2.87;;;1.10;;
11767;SDS011;5941;57.652;12.514;2023-01-31T05:05:11;4.93;;;1.17;;
11767;SDS011;5941;57.652;12.514;2023-01-31T05:07:37;5.80;;;1.00;;
11767;SDS011;5941;57.652;12.514;2023-01-31T05:10:03;4.43;;;1.13;;
11767;SDS011;5941;57.652;12.514;2023-01-31T05:12:29;6.33;;;0.90;;
11767;SDS011;5941;57.652;12.514;2023-01-31T05:14:55;3.03;;;0.90;;
11767;SDS011;5941;57.652;12.514;2023-01-31T05:17:21;8.07;;;1.73;;
11767;SDS011;5941;57.652;12.514;2023-01-31T05:19:49;5.60;;;1.23;;
11767;SDS011;5941;57.652;12.514;2023-01-31T05:22:15;7.70;;;1.10;;
11767;SDS011;5941;57.652;12.514;2023-01-31T05:24:42;5.40;;;0.90;;
11767;SDS011;5941;57.652;12.514;2023-01-31T05:27:08;5.57;;;1.03;;
11767;SDS011;5941;57.652;12.514;2023-01-31T05:29:34;2.93;;;0.73;;
11767;SDS011;5941;57.652;12.514;2023-01-31T05:32:01;2.83;;;1.00;;
11767;SDS011;5941;57.652;12.514;2023-01-31T05:34:27;1.83;;;0.80;;
11767;SDS011;5941;57.652;12.514;2023-01-31T05:36:56;4.90;;;0.90;;
11767;SDS011;5941;57.652;12.514;2023-01-31T05:39:22;6.17;;;1.10;;
11767;SDS011;5941;57.652;12.514;2023-01-31T05:41:48;3.67;;;1.10;;
11767;SDS011;5941;57.652;12.514;2023-01-31T05:44:14;1.83;;;0.70;;
11767;SDS011;5941;57.652;12.514;2023-01-31T05:46:40;3.47;;;0.80;;
11767;SDS011;5941;57.652;12.514;2023-01-31T05:49:07;1.33;;;0.60;;
11767;SDS011;5941;57.652;12.514;2023-01-31T05:51:33;4.17;;;1.00;;
11767;SDS011;5941;57.652;12.514;2023-01-31T05:53:59;3.00;;;0.90;;
11767;SDS011;5941;57.652;12.514;2023-01-31T05:56:25;3.67;;;0.70;;
11767;SDS011;5941;57.652;12.514;2023-01-31T05:58:51;6.33;;;1.13;;
11767;SDS011;5941;57.652;12.514;2023-01-31T06:01:17;2.63;;;1.00;;
11767;SDS011;5941;57.652;12.514;2023-01-31T06:03:43;3.57;;;1.00;;
11767;SDS011;5941;57.652;12.514;2023-01-31T06:06:09;3.13;;;0.87;;
11767;SDS011;5941;57.652;12.514;2023-01-31T06:08:36;3.20;;;0.80;;
11767;SDS011;5941;57.652;12.514;2023-01-31T06:11:02;5.60;;;1.47;;
11767;SDS011;5941;57.652;12.514;2023-01-31T06:13:29;4.80;;;0.93;;
11767;SDS011;5941;57.652;12.514;2023-01-31T06:15:54;2.67;;;1.10;;
11767;SDS011;5941;57.652;12.514;2023-01-31T06:18:21;3.70;;;1.23;;
11767;SDS011;5941;57.652;12.514;2023-01-31T06:20:47;4.80;;;1.30;;
11767;SDS011;5941;57.652;12.514;2023-01-31T06:23:13;2.27;;;1.30;;
11767;SDS011;5941;57.652;12.514;2023-01-31T06:25:39;3.77;;;1.43;;
11767;SDS011;5941;57.652;12.514;2023-01-31T06:28:05;2.80;;;1.33;;
11767;SDS011;5941;57.652;12.514;2023-01-31T06:30:31;3.40;;;1.27;;
11767;SDS011;5941;57.652;12.514;2023-01-31T06:33:00;4.43;;;1.53;;
11767;SDS011;5941;57.652;12.514;2023-01-31T06:35:26;3.30;;;1.30;;
11767;SDS011;5941;57.652;12.514;2023-01-31T06:37:53;5.00;;;1.50;;
11767;SDS011;5941;57.652;12.514;2023-01-31T06:40:19;6.30;;;1.57;;
11767;SDS011;5941;57.652;12.514;2023-01-31T06:42:45;2.73;;;1.20;;
11767;SDS011;5941;57.652;12.514;2023-01-31T06:45:11;10.23;;;1.40;;
11767;SDS011;5941;57.652;12.514;2023-01-31T06:47:37;3.67;;;1.20;;
11767;SDS011;5941;57.652;12.514;2023-01-31T06:50:04;6.90;;;1.10;;
11767;SDS011;5941;57.652;12.514;2023-01-31T06:52:30;5.33;;;1.53;;
11767;SDS011;5941;57.652;12.514;2023-01-31T06:54:56;6.07;;;1.43;;
11767;SDS011;5941;57.652;12.514;2023-01-31T06:57:22;5.10;;;1.00;;
11767;SDS011;5941;57.652;12.514;2023-01-31T06:59:48;2.83;;;1.10;;
11767;SDS011;5941;57.652;12.514;2023-01-31T07:02:13;2.90;;;1.07;;
11767;SDS011;5941;57.652;12.514;2023-01-31T07:04:40;4.47;;;1.00;;
11767;SDS011;5941;57.652;12.514;2023-01-31T07:07:06;4.27;;;1.20;;
11767;SDS011;5941;57.652;12.514;2023-01-31T07:09:32;4.77;;;1.33;;
11767;SDS011;5941;57.652;12.514;2023-01-31T07:11:58;5.23;;;1.00;;
11767;SDS011;5941;57.652;12.514;2023-01-31T07:14:24;5.50;;;1.23;;
11767;SDS011;5941;57.652;12.514;2023-01-31T07:16:50;6.00;;;0.97;;
11767;SDS011;5941;57.652;12.514;2023-01-31T07:19:16;6.90;;;1.20;;
11767;SDS011;5941;57.652;12.514;2023-01-31T07:21:42;6.20;;;1.13;;
11767;SDS011;5941;57.652;12.514;2023-01-31T07:24:08;5.70;;;1.33;;
11767;SDS011;5941;57.652;12.514;2023-01-31T07:26:34;2.47;;;1.00;;
11767;SDS011;5941;57.652;12.514;2023-01-31T07:29:00;5.10;;;1.37;;
11767;SDS011;5941;57.652;12.514;2023-01-31T07:31:26;4.23;;;1.10;;
11767;SDS011;5941;57.652;12.514;2023-01-31T07:33:52;3.67;;;1.13;;
11767;SDS011;5941;57.652;12.514;2023-01-31T07:36:18;3.13;;;1.03;;
11767;SDS011;5941;57.652;12.514;2023-01-31T07:38:51;4.57;;;1.13;;
11767;SDS011;5941;57.652;12.514;2023-01-31T07:41:17;3.03;;;1.10;;
11767;SDS011;5941;57.652;12.514;2023-01-31T07:43:43;6.03;;;1.47;;
11767;SDS011;5941;57.652;12.514;2023-01-31T07:46:09;7.73;;;1.73;;
11767;SDS011;5941;57.652;12.514;2023-01-31T07:48:35;4.90;;;1.30;;
11767;SDS011;5941;57.652;12.514;2023-01-31T07:51:01;3.63;;;1.10;;
11767;SDS011;5941;57.652;12.514;2023-01-31T07:53:28;6.57;;;1.67;;
11767;SDS011;5941;57.652;12.514;2023-01-31T07:55:57;4.60;;;1.37;;
11767;SDS011;5941;57.652;12.514;2023-01-31T07:58:29;2.97;;;1.33;;
11767;SDS011;5941;57.652;12.514;2023-01-31T08:00:55;4.17;;;1.40;;
11767;SDS011;5941;57.652;12.514;2023-01-31T08:03:40;5.53;;;1.40;;
11767;SDS011;5941;57.652;12.514;2023-01-31T08:06:07;5.80;;;1.67;;
11767;SDS011;5941;57.652;12.514;2023-01-31T08:08:34;4.93;;;1.33;;
11767;SDS011;5941;57.652;12.514;2023-01-31T08:11:01;3.33;;;1.20;;
11767;SDS011;5941;57.652;12.514;2023-01-31T08:13:29;5.13;;;1.33;;
11767;SDS011;5941;57.652;12.514;2023-01-31T08:15:55;8.93;;;2.00;;
11767;SDS011;5941;57.652;12.514;2023-01-31T08:18:21;5.40;;;1.53;;
11767;SDS011;5941;57.652;12.514;2023-01-31T08:20:47;3.17;;;1.53;;
11767;SDS011;5941;57.652;12.514;2023-01-31T08:23:13;4.97;;;1.73;;
11767;SDS011;5941;57.652;12.514;2023-01-31T08:25:39;4.07;;;1.70;;
11767;SDS011;5941;57.652;12.514;2023-01-31T08:28:05;5.70;;;2.13;;
11767;SDS011;5941;57.652;12.514;2023-01-31T08:30:31;7.13;;;2.20;;
11767;SDS011;5941;57.652;12.514;2023-01-31T08:32:57;4.57;;;2.67;;
11767;SDS011;5941;57.652;12.514;2023-01-31T08:35:24;5.33;;;1.90;;
11767;SDS011;5941;57.652;12.514;2023-01-31T08:37:50;4.13;;;1.80;;
11767;SDS011;5941;57.652;12.514;2023-01-31T08:40:16;2.77;;;1.47;;
11767;SDS011;5941;57.652;12.514;2023-01-31T08:42:42;7.37;;;1.50;;
11767;SDS011;5941;57.652;12.514;2023-01-31T08:45:09;5.03;;;1.60;;
11767;SDS011;5941;57.652;12.514;2023-01-31T08:47:35;5.60;;;1.60;;
11767;SDS011;5941;57.652;12.514;2023-01-31T08:50:01;8.43;;;1.60;;
11767;SDS011;5941;57.652;12.514;2023-01-31T08:52:27;5.03;;;1.30;;
11767;SDS011;5941;57.652;12.514;2023-01-31T08:54:53;4.87;;;1.60;;
11767;SDS011;5941;57.652;12.514;2023-01-31T08:57:19;4.50;;;1.30;;
11767;SDS011;5941;57.652;12.514;2023-01-31T08:59:45;6.57;;;1.60;;
11767;SDS011;5941;57.652;12.514;2023-01-31T09:02:11;4.67;;;0.90;;
11767;SDS011;5941;57.652;12.514;2023-01-31T09:04:37;4.00;;;0.97;;
11767;SDS011;5941;57.652;12.514;2023-01-31T09:07:03;7.43;;;1.43;;
11767;SDS011;5941;57.652;12.514;2023-01-31T09:09:29;6.70;;;1.23;;
11767;SDS011;5941;57.652;12.514;2023-01-31T09:11:55;4.93;;;1.07;;
11767;SDS011;5941;57.652;12.514;2023-01-31T09:14:21;9.00;;;1.60;;
11767;SDS011;5941;57.652;12.514;2023-01-31T09:16:47;7.80;;;1.43;;
11767;SDS011;5941;57.652;12.514;2023-01-31T09:19:13;6.27;;;1.10;;
11767;SDS011;5941;57.652;12.514;2023-01-31T09:21:39;3.23;;;1.20;;
11767;SDS011;5941;57.652;12.514;2023-01-31T09:24:05;5.13;;;1.10;;
11767;SDS011;5941;57.652;12.514;2023-01-31T09:26:31;3.67;;;1.07;;
11767;SDS011;5941;57.652;12.514;2023-01-31T09:28:57;4.47;;;1.00;;
11767;SDS011;5941;57.652;12.514;2023-01-31T09:31:25;7.00;;;1.20;;
11767;SDS011;5941;57.652;12.514;2023-01-31T09:33:51;3.50;;;1.03;;
11767;SDS011;5941;57.652;12.514;2023-01-31T09:36:19;4.53;;;1.00;;
11767;SDS011;5941;57.652;12.514;2023-01-31T09:38:45;6.17;;;1.10;;
11767;SDS011;5941;57.652;12.514;2023-01-31T09:43:51;8.83;;;1.20;;
11767;SDS011;5941;57.652;12.514;2023-01-31T09:46:18;5.47;;;1.10;;
11767;SDS011;5941;57.652;12.514;2023-01-31T09:48:48;6.53;;;1.77;;
11767;SDS011;5941;57.652;12.514;2023-01-31T09:51:15;4.90;;;1.10;;
11767;SDS011;5941;57.652;12.514;2023-01-31T09:53:41;4.77;;;1.40;;
11767;SDS011;5941;57.652;12.514;2023-01-31T10:01:25;5.63;;;1.50;;
11767;SDS011;5941;57.652;12.514;2023-01-31T10:08:53;8.23;;;1.80;;
11767;SDS011;5941;57.652;12.514;2023-01-31T10:11:26;7.97;;;1.37;;
11767;SDS011;5941;57.652;12.514;2023-01-31T10:14:01;5.77;;;1.47;;
11767;SDS011;5941;57.652;12.514;2023-01-31T10:17:03;6.30;;;1.90;;
11767;SDS011;5941;57.652;12.514;2023-01-31T10:19:22;6.33;;;1.20;;
11767;SDS011;5941;57.652;12.514;2023-01-31T10:21:59;8.03;;;1.60;;
11767;SDS011;5941;57.652;12.514;2023-01-31T10:24:37;5.17;;;1.20;;
11767;SDS011;5941;57.652;12.514;2023-01-31T10:27:06;6.97;;;2.03;;
11767;SDS011;5941;57.652;12.514;2023-01-31T10:29:36;5.57;;;1.30;;
11767;SDS011;5941;57.652;12.514;2023-01-31T10:32:05;10.23;;;1.80;;
11767;SDS011;5941;57.652;12.514;2023-01-31T10:34:46;8.27;;;1.37;;
11767;SDS011;5941;57.652;12.514;2023-01-31T10:37:18;7.20;;;1.47;;
11767;SDS011;5941;57.652;12.514;2023-01-31T10:39:46;7.80;;;1.43;;
11767;SDS011;5941;57.652;12.514;2023-01-31T10:44:51;6.10;;;1.03;;
11767;SDS011;5941;57.652;12.514;2023-01-31T10:47:19;7.30;;;1.30;;
11767;SDS011;5941;57.652;12.514;2023-01-31T10:49:46;6.53;;;1.40;;
11767;SDS011;5941;57.652;12.514;2023-01-31T10:55:03;8.13;;;1.70;;
11767;SDS011;5941;57.652;12.514;2023-01-31T10:57:30;6.13;;;1.30;;
11767;SDS011;5941;57.652;12.514;2023-01-31T10:59:57;6.07;;;1.23;;
11767;SDS011;5941;57.652;12.514;2023-01-31T11:02:23;5.23;;;1.47;;
11767;SDS011;5941;57.652;12.514;2023-01-31T11:04:51;10.67;;;1.70;;
11767;SDS011;5941;57.652;12.514;2023-01-31T11:07:18;11.03;;;1.60;;
11767;SDS011;5941;57.652;12.514;2023-01-31T11:09:48;10.27;;;1.43;;
11767;SDS011;5941;57.652;12.514;2023-01-31T11:12:21;7.17;;;1.50;;
11767;SDS011;5941;57.652;12.514;2023-01-31T11:15:35;6.53;;;1.77;;
11767;SDS011;5941;57.652;12.514;2023-01-31T11:17:50;7.53;;;1.80;;
11767;SDS011;5941;57.652;12.514;2023-01-31T11:20:21;4.73;;;1.43;;
11767;SDS011;5941;57.652;12.514;2023-01-31T11:22:48;5.50;;;1.43;;
11767;SDS011;5941;57.652;12.514;2023-01-31T11:25:18;7.30;;;1.70;;
11767;SDS011;5941;57.652;12.514;2023-01-31T11:27:45;9.80;;;1.67;;
11767;SDS011;5941;57.652;12.514;2023-01-31T11:30:19;4.50;;;1.30;;
11767;SDS011;5941;57.652;12.514;2023-01-31T11:32:46;6.07;;;1.70;;
11767;SDS011;5941;57.652;12.514;2023-01-31T11:37:48;6.50;;;1.80;;
11767;SDS011;5941;57.652;12.514;2023-01-31T11:42:51;5.63;;;1.50;;
11767;SDS011;5941;57.652;12.514;2023-01-31T11:45:19;6.17;;;1.60;;
11767;SDS011;5941;57.652;12.514;2023-01-31T11:47:46;5.57;;;1.70;;
11767;SDS011;5941;57.652;12.514;2023-01-31T11:52:58;4.30;;;1.20;;
11767;SDS011;5941;57.652;12.514;2023-01-31T11:55:24;5.67;;;1.27;;
11767;SDS011;5941;57.652;12.514;2023-01-31T11:57:55;3.53;;;1.27;;
11767;SDS011;5941;57.652;12.514;2023-01-31T12:00:22;4.87;;;1.13;;
11767;SDS011;5941;57.652;12.514;2023-01-31T12:05:29;5.80;;;1.10;;
11767;SDS011;5941;57.652;12.514;2023-01-31T12:07:56;5.67;;;1.17;;
11767;SDS011;5941;57.652;12.514;2023-01-31T12:10:39;4.73;;;1.20;;
11767;SDS011;5941;57.652;12.514;2023-01-31T12:13:15;4.10;;;1.23;;
11767;SDS011;5941;57.652;12.514;2023-01-31T12:15:52;3.47;;;1.13;;
11767;SDS011;5941;57.652;12.514;2023-01-31T12:18:44;5.00;;;0.90;;
11767;SDS011;5941;57.652;12.514;2023-01-31T12:32:13;1.93;;;0.73;;
11767;SDS011;5941;57.652;12.514;2023-01-31T12:39:49;1.97;;;0.97;;
11767;SDS011;5941;57.652;12.514;2023-01-31T12:44:56;1.70;;;0.43;;
11767;SDS011;5941;57.652;12.514;2023-01-31T12:50:10;0.87;;;0.37;;
11767;SDS011;5941;57.652;12.514;2023-01-31T12:52:45;1.93;;;0.50;;
11767;SDS011;5941;57.652;12.514;2023-01-31T13:03:21;2.00;;;0.60;;
11767;SDS011;5941;57.652;12.514;2023-01-31T13:05:50;0.73;;;0.73;;
11767;SDS011;5941;57.652;12.514;2023-01-31T13:08:19;1.73;;;0.43;;
11767;SDS011;5941;57.652;12.514;2023-01-31T13:10:55;0.40;;;0.20;;
11767;SDS011;5941;57.652;12.514;2023-01-31T13:13:26;1.40;;;0.30;;
11767;SDS011;5941;57.652;12.514;2023-01-31T13:16:03;1.33;;;0.40;;
11767;SDS011;5941;57.652;12.514;2023-01-31T13:18:31;0.97;;;0.50;;
11767;SDS011;5941;57.652;12.514;2023-01-31T13:21:00;0.50;;;0.50;;
11767;SDS011;5941;57.652;12.514;2023-01-31T13:23:28;0.40;;;0.40;;
11767;SDS011;5941;57.652;12.514;2023-01-31T13:25:56;0.40;;;0.40;;
11767;SDS011;5941;57.652;12.514;2023-01-31T13:28:25;0.47;;;0.40;;
11767;SDS011;5941;57.652;12.514;2023-01-31T13:30:57;1.80;;;0.20;;
11767;SDS011;5941;57.652;12.514;2023-01-31T13:33:40;0.30;;;0.30;;
11767;SDS011;5941;57.652;12.514;2023-01-31T13:36:26;0.33;;;0.33;;
11767;SDS011;5941;57.652;12.514;2023-01-31T13:38:54;1.00;;;0.40;;
11767;SDS011;5941;57.652;12.514;2023-01-31T13:43:49;0.37;;;0.23;;
11767;SDS011;5941;57.652;12.514;2023-01-31T13:46:16;0.67;;;0.20;;
11767;SDS011;5941;57.652;12.514;2023-01-31T13:48:46;0.80;;;0.40;;
11767;SDS011;5941;57.652;12.514;2023-01-31T13:53:56;1.27;;;1.20;;
11767;SDS011;5941;57.652;12.514;2023-01-31T13:56:25;0.60;;;0.60;;
11767;SDS011;5941;57.652;12.514;2023-01-31T13:58:53;0.67;;;0.50;;
11767;SDS011;5941;57.652;12.514;2023-01-31T14:01:20;0.20;;;0.20;;
11767;SDS011;5941;57.652;12.514;2023-01-31T14:09:31;0.20;;;0.20;;
11767;SDS011;5941;57.652;12.514;2023-01-31T14:12:24;0.43;;;0.43;;
11767;SDS011;5941;57.652;12.514;2023-01-31T14:22:14;0.30;;;0.30;;
11767;SDS011;5941;57.652;12.514;2023-01-31T14:27:35;0.20;;;0.20;;
11767;SDS011;5941;57.652;12.514;2023-01-31T14:32:43;0.30;;;0.30;;
11767;SDS011;5941;57.652;12.514;2023-01-31T14:45:35;0.40;;;0.40;;
11767;SDS011;5941;57.652;12.514;2023-01-31T14:53:19;0.33;;;0.33;;
11767;SDS011;5941;57.652;12.514;2023-01-31T14:58:15;1.30;;;0.43;;
11767;SDS011;5941;57.652;12.514;2023-01-31T15:00:53;0.60;;;0.60;;
11767;SDS011;5941;57.652;12.514;2023-01-31T15:03:24;2.00;;;0.70;;
11767;SDS011;5941;57.652;12.514;2023-01-31T15:06:13;1.40;;;0.73;;
11767;SDS011;5941;57.652;12.514;2023-01-31T15:08:38;0.87;;;0.87;;
11767;SDS011;5941;57.652;12.514;2023-01-31T15:11:34;1.63;;;0.80;;
11767;SDS011;5941;57.652;12.514;2023-01-31T15:13:59;0.53;;;0.40;;
11767;SDS011;5941;57.652;12.514;2023-01-31T15:16:26;1.83;;;0.97;;
11767;SDS011;5941;57.652;12.514;2023-01-31T15:24:04;1.47;;;0.57;;
11767;SDS011;5941;57.652;12.514;2023-01-31T15:26:31;1.17;;;0.80;;
11767;SDS011;5941;57.652;12.514;2023-01-31T15:28:59;1.17;;;0.83;;
11767;SDS011;5941;57.652;12.514;2023-01-31T15:31:37;1.20;;;0.70;;
11767;SDS011;5941;57.652;12.514;2023-01-31T15:34:21;2.77;;;0.70;;
11767;SDS011;5941;57.652;12.514;2023-01-31T15:36:57;6.73;;;5.57;;
11767;SDS011;5941;57.652;12.514;2023-01-31T15:39:31;26.77;;;21.47;;
11767;SDS011;5941;57.652;12.514;2023-01-31T15:42:00;16.30;;;7.83;;
11767;SDS011;5941;57.652;12.514;2023-01-31T15:44:38;13.87;;;8.80;;
11767;SDS011;5941;57.652;12.514;2023-01-31T15:47:17;17.47;;;9.53;;
11767;SDS011;5941;57.652;12.514;2023-01-31T15:49:44;14.40;;;9.13;;
11767;SDS011;5941;57.652;12.514;2023-01-31T15:54:36;13.33;;;8.13;;
11767;SDS011;5941;57.652;12.514;2023-01-31T15:57:02;12.03;;;8.10;;
11767;SDS011;5941;57.652;12.514;2023-01-31T15:59:29;9.83;;;5.67;;
11767;SDS011;5941;57.652;12.514;2023-01-31T16:01:58;5.70;;;4.27;;
11767;SDS011;5941;57.652;12.514;2023-01-31T16:04:26;6.20;;;4.10;;
11767;SDS011;5941;57.652;12.514;2023-01-31T16:06:52;4.60;;;1.70;;
11767;SDS011;5941;57.652;12.514;2023-01-31T16:09:26;3.70;;;2.10;;
11767;SDS011;5941;57.652;12.514;2023-01-31T16:11:53;1.40;;;1.30;;
11767;SDS011;5941;57.652;12.514;2023-01-31T16:14:20;3.40;;;1.90;;
11767;SDS011;5941;57.652;12.514;2023-01-31T16:16:47;2.80;;;0.90;;
11767;SDS011;5941;57.652;12.514;2023-01-31T16:19:18;2.33;;;0.80;;
11767;SDS011;5941;57.652;12.514;2023-01-31T16:21:46;1.83;;;1.03;;
11767;SDS011;5941;57.652;12.514;2023-01-31T16:26:39;1.23;;;0.80;;
11767;SDS011;5941;57.652;12.514;2023-01-31T16:29:07;1.67;;;0.93;;
11767;SDS011;5941;57.652;12.514;2023-01-31T16:31:34;1.60;;;0.70;;
11767;SDS011;5941;57.652;12.514;2023-01-31T16:34:13;4.43;;;0.93;;
11767;SDS011;5941;57.652;12.514;2023-01-31T16:39:48;1.17;;;0.60;;
11767;SDS011;5941;57.652;12.514;2023-01-31T16:42:08;1.03;;;0.40;;
11767;SDS011;5941;57.652;12.514;2023-01-31T16:44:47;1.27;;;0.43;;
11767;SDS011;5941;57.652;12.514;2023-01-31T16:50:41;1.47;;;0.60;;
11767;SDS011;5941;57.652;12.514;2023-01-31T16:52:45;0.53;;;0.30;;
11767;SDS011;5941;57.652;12.514;2023-01-31T16:55:19;2.30;;;0.57;;
11767;SDS011;5941;57.652;12.514;2023-01-31T16:57:45;9.20;;;5.27;;
11767;SDS011;5941;57.652;12.514;2023-01-31T17:02:49;19.57;;;10.20;;
11767;SDS011;5941;57.652;12.514;2023-01-31T17:05:27;4.30;;;2.90;;
11767;SDS011;5941;57.652;12.514;2023-01-31T17:07:53;4.57;;;3.17;;
11767;SDS011;5941;57.652;12.514;2023-01-31T17:10:20;10.17;;;4.77;;
11767;SDS011;5941;57.652;12.514;2023-01-31T17:12:47;8.73;;;2.80;;
11767;SDS011;5941;57.652;12.514;2023-01-31T17:15:14;5.03;;;1.70;;
11767;SDS011;5941;57.652;12.514;2023-01-31T17:17:40;5.67;;;1.10;;
11767;SDS011;5941;57.652;12.514;2023-01-31T17:20:06;6.63;;;1.40;;
11767;SDS011;5941;57.652;12.514;2023-01-31T17:22:32;8.37;;;1.40;;